createdAt,value
2019-03-21T00:01:30.460Z,9.50
2019-03-21T00:04:00.512Z,9.60
2019-03-21T00:06:26.971Z,9.50
2019-03-21T00:08:53.403Z,9.50
2019-03-21T00:11:57.801Z,9.50
2019-03-21T00:14:45.086Z,9.50
2019-03-21T00:17:17.932Z,9.40
2019-03-21T00:19:44.377Z,9.40
2019-03-21T00:22:10.740Z,9.40
2019-03-21T00:24:37.123Z,9.40
2019-03-21T00:27:03.674Z,9.40
2019-03-21T00:29:30.144Z,9.40
2019-03-21T00:31:56.695Z,9.40
2019-03-21T00:34:23.136Z,9.40
2019-03-21T00:36:49.567Z,9.40
2019-03-21T00:39:15.957Z,9.40
2019-03-21T00:41:42.350Z,9.40
2019-03-21T00:44:17.912Z,9.40
2019-03-21T00:46:36.998Z,9.40
2019-03-21T00:49:03.385Z,9.40
2019-03-21T00:51:29.790Z,9.40
2019-03-21T00:53:56.210Z,9.40
2019-03-21T00:56:23.931Z,9.40
2019-03-21T00:58:50.587Z,9.30
2019-03-21T01:01:16.957Z,9.40
2019-03-21T01:03:43.462Z,9.40
2019-03-21T01:06:09.957Z,9.40
2019-03-21T01:08:36.331Z,9.40
2019-03-21T01:11:02.717Z,9.30
2019-03-21T01:13:32.566Z,9.30
2019-03-21T01:15:59.013Z,9.30
2019-03-21T01:18:25.396Z,9.40
2019-03-21T01:20:51.887Z,9.30
2019-03-21T01:23:18.192Z,9.30
2019-03-21T01:25:47.497Z,9.30
2019-03-21T01:28:13.847Z,9.30
2019-03-21T01:30:40.259Z,9.30
2019-03-21T01:33:07.794Z,9.30
2019-03-21T01:35:34.807Z,9.20
2019-03-21T01:38:01.212Z,9.30
2019-03-21T01:40:43.451Z,9.20
2019-03-21T01:43:09.929Z,9.20
2019-03-21T01:45:36.408Z,9.20
2019-03-21T01:48:03.196Z,9.30
2019-03-21T01:50:32.006Z,9.20
2019-03-21T01:52:58.421Z,9.20
2019-03-21T01:55:24.740Z,9.20
2019-03-21T01:57:51.140Z,9.20
2019-03-21T02:00:23.916Z,9.20
2019-03-21T02:02:52.922Z,9.20
2019-03-21T02:05:19.301Z,9.20
2019-03-21T02:07:45.710Z,9.20
2019-03-21T02:10:14.566Z,9.10
2019-03-21T02:12:41.045Z,9.10
2019-03-21T02:15:12.669Z,9.10
2019-03-21T02:17:39.222Z,9.20
2019-03-21T02:20:09.429Z,9.20
2019-03-21T02:22:35.779Z,9.10
2019-03-21T02:25:04.802Z,9.20
2019-03-21T02:27:31.175Z,9.20
2019-03-21T02:29:57.569Z,9.20
2019-03-21T02:32:24.017Z,9.20
2019-03-21T02:34:50.453Z,9.20
2019-03-21T02:37:16.869Z,9.10
2019-03-21T02:39:43.240Z,9.10
2019-03-21T02:42:09.621Z,9.20
2019-03-21T02:44:36.008Z,9.10
2019-03-21T02:47:02.335Z,9.10
2019-03-21T02:49:28.816Z,9.10
2019-03-21T02:51:56.198Z,9.10
2019-03-21T02:54:23.524Z,9.10
2019-03-21T02:56:50.649Z,9.10
2019-03-21T02:59:16.992Z,9.10
2019-03-21T03:01:43.379Z,9.10
2019-03-21T03:04:09.795Z,9.10
2019-03-21T03:06:36.127Z,9.10
2019-03-21T03:09:05.344Z,9.20
2019-03-21T03:11:31.707Z,9.10
2019-03-21T03:13:58.112Z,9.20
2019-03-21T03:16:24.654Z,9.10
2019-03-21T03:18:51.074Z,9.20
2019-03-21T03:21:18.679Z,9.20
2019-03-21T03:23:45.091Z,9.20
2019-03-21T03:26:11.555Z,9.20
2019-03-21T03:28:44.369Z,9.10
2019-03-21T03:31:10.765Z,9.10
2019-03-21T03:33:37.247Z,9.10
2019-03-21T03:36:03.834Z,9.20
2019-03-21T03:38:30.285Z,9.10
2019-03-21T03:41:02.410Z,9.20
2019-03-21T03:43:28.826Z,9.20
2019-03-21T03:45:55.261Z,9.10
2019-03-21T03:48:21.701Z,9.10
2019-03-21T03:50:48.099Z,9.00
2019-03-21T03:53:14.500Z,9.00
2019-03-21T03:55:40.891Z,9.10
2019-03-21T03:58:10.005Z,9.00
2019-03-21T04:00:36.973Z,9.10
2019-03-21T04:03:03.496Z,9.10
2019-03-21T04:05:29.815Z,9.00
2019-03-21T04:07:56.183Z,9.00
2019-03-21T04:10:31.475Z,9.10
2019-03-21T04:12:57.837Z,9.10
2019-03-21T04:15:24.239Z,9.10
2019-03-21T04:17:50.626Z,9.00
2019-03-21T04:20:23.222Z,8.90
2019-03-21T04:22:49.650Z,8.90
2019-03-21T04:25:19.368Z,8.90
2019-03-21T04:27:45.749Z,8.90
2019-03-21T04:30:14.945Z,8.90
2019-03-21T04:32:41.341Z,8.90
2019-03-21T04:35:10.331Z,8.90
2019-03-21T04:37:36.750Z,8.90
2019-03-21T04:40:06.941Z,8.90
2019-03-21T04:42:33.331Z,8.80
2019-03-21T04:44:59.693Z,8.80
2019-03-21T04:47:26.051Z,8.80
2019-03-21T04:49:52.401Z,8.80
2019-03-21T04:52:18.744Z,8.80
2019-03-21T04:54:45.140Z,8.60
2019-03-21T04:57:11.482Z,8.70
2019-03-21T04:59:37.911Z,8.70
2019-03-21T05:02:04.238Z,8.70
2019-03-21T05:04:30.649Z,8.60
2019-03-21T05:06:57.042Z,8.60
2019-03-21T05:09:23.451Z,8.60
2019-03-21T05:11:49.770Z,8.70
2019-03-21T05:14:16.189Z,8.70
2019-03-21T05:16:42.692Z,8.70
2019-03-21T05:19:09.130Z,8.80
2019-03-21T05:21:35.532Z,8.80
2019-03-21T05:24:01.964Z,8.80
2019-03-21T05:26:28.406Z,8.70
2019-03-21T05:28:54.795Z,8.80
2019-03-21T05:31:31.045Z,8.80
2019-03-21T05:33:57.404Z,8.90
2019-03-21T05:36:23.825Z,8.80
2019-03-21T05:38:50.233Z,8.90
2019-03-21T05:41:17.704Z,8.80
2019-03-21T05:43:47.915Z,8.90
2019-03-21T05:46:25.671Z,8.90
2019-03-21T05:48:43.317Z,8.90
2019-03-21T05:51:09.732Z,8.90
2019-03-21T05:53:36.145Z,9.00
2019-03-21T05:56:02.644Z,9.00
2019-03-21T05:58:29.091Z,9.00
2019-03-21T06:01:01.960Z,9.00
2019-03-21T06:03:32.250Z,9.00
2019-03-21T06:06:05.189Z,9.10
2019-03-21T06:08:34.593Z,9.20
2019-03-21T06:11:01.085Z,9.30
2019-03-21T06:13:27.496Z,9.30
2019-03-21T06:16:06.815Z,9.30
2019-03-21T06:18:50.354Z,9.40
2019-03-21T06:21:26.558Z,9.60
2019-03-21T06:24:13.455Z,9.60
2019-03-21T06:27:01.842Z,9.70
2019-03-21T06:29:28.277Z,9.90
2019-03-21T06:31:54.698Z,9.90
2019-03-21T06:34:21.143Z,9.90
2019-03-21T06:36:47.542Z,9.90
2019-03-21T06:39:14.006Z,10.00
2019-03-21T06:41:40.396Z,10.20
2019-03-21T06:44:06.892Z,10.30
2019-03-21T06:46:33.350Z,10.20
2019-03-21T06:48:59.787Z,10.20
2019-03-21T06:51:26.264Z,10.20
2019-03-21T06:53:52.754Z,10.30
2019-03-21T06:56:19.157Z,10.40
2019-03-21T06:58:45.536Z,10.30
2019-03-21T07:01:11.886Z,10.50
2019-03-21T07:03:38.254Z,10.50
2019-03-21T07:06:04.593Z,10.50
2019-03-21T07:08:31.027Z,10.50
2019-03-21T07:10:58.340Z,10.60
2019-03-21T07:13:25.026Z,10.60
2019-03-21T07:15:51.459Z,10.70
2019-03-21T07:18:17.878Z,10.80
2019-03-21T07:20:44.092Z,10.80
2019-03-21T07:23:10.508Z,10.90
2019-03-21T07:25:36.961Z,11.10
2019-03-21T07:28:03.395Z,11.10
2019-03-21T07:30:29.788Z,11.50
2019-03-21T07:32:56.224Z,11.90
2019-03-21T07:35:22.652Z,12.90
2019-03-21T07:37:49.067Z,14.20
2019-03-21T07:40:15.518Z,15.30
2019-03-21T07:42:41.955Z,15.80
2019-03-21T07:45:10.465Z,16.50
2019-03-21T07:47:36.885Z,17.30
2019-03-21T07:50:06.601Z,18.10
2019-03-21T07:52:33.021Z,18.20
2019-03-21T07:54:59.323Z,18.40
2019-03-21T07:57:25.729Z,17.80
2019-03-21T07:59:52.132Z,17.30
2019-03-21T08:02:19.673Z,17.50
2019-03-21T08:04:46.154Z,17.80
2019-03-21T08:07:12.670Z,17.10
2019-03-21T08:09:39.126Z,17.00
2019-03-21T08:12:05.801Z,16.40
2019-03-21T08:14:33.613Z,16.70
2019-03-21T08:17:00.019Z,16.40
2019-03-21T08:19:26.454Z,16.40
2019-03-21T08:21:53.160Z,16.50
2019-03-21T08:24:19.631Z,17.30
2019-03-21T08:26:46.041Z,18.20
2019-03-21T08:29:12.502Z,17.70
2019-03-21T08:31:39.056Z,17.30
2019-03-21T08:34:05.477Z,16.50
2019-03-21T08:36:31.959Z,17.30
2019-03-21T08:38:58.397Z,18.50
2019-03-21T08:41:24.836Z,18.60
2019-03-21T08:43:51.238Z,17.50
2019-03-21T08:46:17.680Z,17.70
2019-03-21T08:48:44.020Z,18.40
2019-03-21T08:51:10.419Z,19.30
2019-03-21T08:53:36.777Z,19.90
2019-03-21T08:56:03.510Z,19.60
2019-03-21T08:58:29.926Z,19.90
2019-03-21T09:00:56.340Z,19.80
2019-03-21T09:03:22.766Z,19.30
2019-03-21T09:05:49.331Z,20.40
2019-03-21T09:08:15.717Z,20.50
2019-03-21T09:10:42.103Z,21.40
2019-03-21T09:13:08.495Z,20.80
2019-03-21T09:15:35.904Z,20.40
2019-03-21T09:18:03.333Z,19.60
2019-03-21T09:20:29.678Z,19.40
2019-03-21T09:22:56.103Z,18.70
2019-03-21T09:25:22.563Z,18.20
2019-03-21T09:27:49.326Z,17.50
2019-03-21T09:30:15.924Z,17.00
2019-03-21T09:32:42.333Z,16.70
2019-03-21T09:35:09.049Z,16.60
2019-03-21T09:37:35.474Z,16.40
2019-03-21T09:40:04.508Z,17.20
2019-03-21T09:42:30.959Z,18.50
2019-03-21T09:44:57.355Z,19.40
2019-03-21T09:47:23.938Z,20.50
2019-03-21T09:49:50.516Z,20.20
2019-03-21T09:52:17.014Z,19.90
2019-03-21T09:54:43.477Z,19.10
2019-03-21T09:57:11.018Z,18.80
2019-03-21T09:59:37.455Z,18.90
2019-03-21T10:02:03.915Z,18.60
2019-03-21T10:04:30.434Z,18.40
2019-03-21T10:06:56.913Z,18.50
2019-03-21T10:09:23.462Z,19.50
2019-03-21T10:11:49.960Z,20.70
2019-03-21T10:14:16.401Z,22.10
2019-03-21T10:16:42.856Z,22.50
2019-03-21T10:19:09.382Z,23.90
2019-03-21T10:21:43.120Z,23.50
2019-03-21T10:24:04.428Z,23.50
2019-03-21T10:26:30.832Z,23.30
2019-03-21T10:28:57.268Z,24.00
2019-03-21T10:31:23.771Z,24.00
2019-03-21T10:33:50.190Z,24.00
2019-03-21T10:36:16.591Z,23.80
2019-03-21T10:38:43.105Z,23.20
2019-03-21T10:41:09.509Z,23.20
2019-03-21T10:43:36.047Z,23.50
2019-03-21T10:46:02.426Z,23.70
2019-03-21T10:48:28.864Z,22.90
2019-03-21T10:50:55.252Z,22.20
2019-03-21T10:53:21.667Z,21.30
2019-03-21T10:55:48.130Z,20.20
2019-03-21T10:58:14.604Z,20.20
2019-03-21T11:00:41.059Z,20.10
2019-03-21T11:03:07.739Z,20.80
2019-03-21T11:05:34.184Z,21.40
2019-03-21T11:08:00.640Z,21.20
2019-03-21T11:10:27.045Z,21.80
2019-03-21T11:12:53.446Z,22.40
2019-03-21T11:15:19.897Z,21.50
2019-03-21T11:17:46.296Z,20.60
2019-03-21T11:20:16.531Z,21.00
2019-03-21T11:22:43.617Z,22.10
2019-03-21T11:25:10.149Z,22.60
2019-03-21T11:27:36.577Z,23.50
2019-03-21T11:30:15.695Z,23.40
2019-03-21T11:32:34.086Z,23.50
2019-03-21T11:35:00.487Z,24.10
2019-03-21T11:37:26.901Z,24.30
2019-03-21T11:39:53.337Z,24.70
2019-03-21T11:42:20.191Z,25.30
2019-03-21T11:44:46.711Z,25.70
2019-03-21T11:47:13.174Z,25.40
2019-03-21T11:49:39.854Z,23.90
2019-03-21T11:52:17.519Z,22.50
2019-03-21T11:54:34.522Z,21.50
2019-03-21T11:57:00.920Z,21.30
2019-03-21T11:59:41.283Z,21.20
2019-03-21T12:01:55.633Z,21.30
2019-03-21T12:04:22.053Z,21.30
2019-03-21T12:06:48.425Z,21.10
2019-03-21T12:09:14.849Z,21.20
2019-03-21T12:11:41.317Z,21.00
2019-03-21T12:14:07.732Z,20.80
2019-03-21T12:16:34.144Z,20.70
2019-03-21T12:19:00.622Z,19.90
2019-03-21T12:21:26.988Z,19.40
2019-03-21T12:23:53.819Z,18.50
2019-03-21T12:26:20.283Z,18.50
2019-03-21T12:28:46.732Z,18.00
2019-03-21T12:31:13.124Z,17.90
2019-03-21T12:33:39.541Z,17.90
2019-03-21T12:36:05.945Z,17.80
2019-03-21T12:38:32.397Z,17.70
2019-03-21T12:40:58.804Z,17.70
2019-03-21T12:43:25.259Z,17.40
2019-03-21T12:45:51.702Z,17.70
2019-03-21T12:48:18.089Z,17.80
2019-03-21T12:50:44.539Z,17.90
2019-03-21T12:53:10.997Z,17.50
2019-03-21T12:55:37.435Z,17.30
2019-03-21T12:58:03.840Z,17.10
2019-03-21T13:00:35.224Z,17.20
2019-03-21T13:03:01.629Z,17.20
2019-03-21T13:05:29.064Z,17.20
2019-03-21T13:07:55.767Z,16.90
2019-03-21T13:10:22.198Z,16.80
2019-03-21T13:12:48.629Z,16.40
2019-03-21T13:15:15.036Z,16.10
2019-03-21T13:17:41.477Z,16.00
2019-03-21T13:20:08.259Z,15.90
2019-03-21T13:22:34.723Z,15.60
2019-03-21T13:25:01.070Z,15.50
2019-03-21T13:27:27.515Z,15.50
2019-03-21T13:29:54.958Z,15.40
2019-03-21T13:32:21.461Z,15.30
2019-03-21T13:34:47.947Z,15.20
2019-03-21T13:37:14.309Z,15.10
2019-03-21T13:39:40.801Z,15.10
2019-03-21T13:42:07.227Z,15.00
2019-03-21T13:44:33.731Z,14.90
2019-03-21T13:47:00.166Z,14.80
2019-03-21T13:49:26.592Z,14.90
2019-03-21T13:51:53.047Z,15.00
2019-03-21T13:54:19.472Z,15.20
2019-03-21T13:56:45.940Z,15.20
2019-03-21T13:59:12.354Z,15.10
2019-03-21T14:01:38.815Z,15.10
2019-03-21T14:04:05.177Z,15.10
2019-03-21T14:06:31.642Z,15.10
2019-03-21T14:08:58.056Z,15.10
2019-03-21T14:11:24.470Z,15.10
2019-03-21T14:13:50.843Z,15.10
2019-03-21T14:16:18.096Z,15.10
2019-03-21T14:18:44.491Z,15.00
2019-03-21T14:21:10.867Z,14.90
2019-03-21T14:23:43.317Z,14.90
2019-03-21T14:26:05.600Z,14.80
2019-03-21T14:28:32.030Z,14.80
2019-03-21T14:30:58.459Z,14.80
2019-03-21T14:33:24.857Z,14.70
2019-03-21T14:35:51.288Z,14.70
2019-03-21T14:38:26.045Z,14.70
2019-03-21T14:40:45.929Z,14.60
2019-03-21T14:43:12.451Z,14.60
2019-03-21T14:45:38.851Z,14.50
2019-03-21T14:48:05.265Z,14.40
2019-03-21T14:50:31.638Z,14.40
2019-03-21T14:52:58.075Z,14.30
2019-03-21T14:55:24.478Z,14.20
2019-03-21T14:57:50.917Z,14.20
2019-03-21T15:00:18.890Z,14.20
2019-03-21T15:02:45.347Z,14.10
2019-03-21T15:05:12.220Z,14.10
2019-03-21T15:07:38.719Z,14.10
2019-03-21T15:10:07.987Z,14.00
2019-03-21T15:12:34.369Z,14.00
2019-03-21T15:15:00.812Z,13.90
2019-03-21T15:17:27.228Z,13.90
2019-03-21T15:19:53.645Z,13.90
2019-03-21T15:22:20.026Z,14.00
2019-03-21T15:24:46.558Z,14.00
2019-03-21T15:27:13.072Z,14.00
2019-03-21T15:29:39.478Z,14.10
2019-03-21T15:32:05.913Z,14.00
2019-03-21T15:34:33.341Z,14.00
2019-03-21T15:36:59.769Z,14.00
2019-03-21T15:39:26.173Z,13.90
2019-03-21T15:41:52.707Z,13.90
2019-03-21T15:44:19.199Z,13.90
2019-03-21T15:46:45.664Z,14.00
2019-03-21T15:49:12.444Z,14.00
2019-03-21T15:51:38.841Z,13.90
2019-03-21T15:54:05.360Z,13.90
2019-03-21T15:56:31.902Z,13.90
2019-03-21T15:58:58.354Z,13.90
2019-03-21T16:01:24.784Z,13.80
2019-03-21T16:03:51.195Z,13.70
2019-03-21T16:06:17.648Z,13.70
2019-03-21T16:08:44.268Z,13.70
2019-03-21T16:11:10.713Z,13.60
2019-03-21T16:13:37.166Z,13.60
2019-03-21T16:16:03.626Z,13.50
2019-03-21T16:18:30.042Z,13.50
2019-03-21T16:20:56.596Z,13.50
2019-03-21T16:23:23.059Z,13.50
2019-03-21T16:25:50.120Z,13.40
2019-03-21T16:28:16.641Z,13.40
2019-03-21T16:30:43.110Z,13.30
2019-03-21T16:33:10.557Z,13.30
2019-03-21T16:35:37.264Z,13.20
2019-03-21T16:38:03.984Z,13.20
2019-03-21T16:40:30.600Z,13.20
2019-03-21T16:42:56.976Z,13.10
2019-03-21T16:45:23.430Z,13.10
2019-03-21T16:47:49.852Z,13.00
2019-03-21T16:50:16.329Z,13.00
2019-03-21T16:52:43.070Z,13.00
2019-03-21T16:55:12.479Z,13.00
2019-03-21T16:57:38.902Z,13.00
2019-03-21T17:00:10.287Z,13.00
2019-03-21T17:02:38.644Z,13.00
2019-03-21T17:05:06.023Z,13.00
2019-03-21T17:07:32.499Z,12.90
2019-03-21T17:10:00.721Z,12.90
2019-03-21T17:12:27.578Z,13.00
2019-03-21T17:14:54.144Z,13.00
2019-03-21T17:17:20.614Z,13.00
2019-03-21T17:19:47.126Z,13.00
2019-03-21T17:22:13.565Z,12.90
2019-03-21T17:24:40.032Z,12.90
2019-03-21T17:27:06.442Z,12.80
2019-03-21T17:29:32.941Z,12.80
2019-03-21T17:31:59.588Z,12.80
2019-03-21T17:34:26.039Z,12.70
2019-03-21T17:36:53.557Z,12.70
2019-03-21T17:39:20.059Z,12.60
2019-03-21T17:41:46.580Z,12.60
2019-03-21T17:44:13.006Z,12.60
2019-03-21T17:46:39.523Z,12.50
2019-03-21T17:49:06.020Z,12.50
2019-03-21T17:51:32.432Z,12.50
2019-03-21T17:53:58.904Z,12.50
2019-03-21T17:56:25.650Z,12.40
2019-03-21T17:58:52.101Z,12.50
2019-03-21T18:01:18.818Z,12.50
2019-03-21T18:03:46.447Z,12.50
2019-03-21T18:06:13.039Z,12.40
2019-03-21T18:08:39.539Z,12.40
2019-03-21T18:11:05.982Z,12.40
2019-03-21T18:13:33.236Z,12.40
2019-03-21T18:16:01.032Z,12.40
2019-03-21T18:18:27.728Z,12.40
2019-03-21T18:20:54.263Z,12.30
2019-03-21T18:23:20.705Z,12.30
2019-03-21T18:25:48.302Z,12.20
2019-03-21T18:28:14.803Z,12.20
2019-03-21T18:30:41.276Z,12.20
2019-03-21T18:33:08.748Z,12.10
2019-03-21T18:35:35.157Z,12.10
2019-03-21T18:38:01.557Z,12.10
2019-03-21T18:40:27.983Z,12.10
2019-03-21T18:42:54.408Z,12.00
2019-03-21T18:45:20.979Z,12.10
2019-03-21T18:47:47.429Z,12.00
2019-03-21T18:50:16.777Z,12.00
2019-03-21T18:52:43.240Z,12.00
2019-03-21T18:55:10.189Z,11.90
2019-03-21T18:57:36.659Z,11.90
2019-03-21T19:00:05.583Z,11.90
2019-03-21T19:02:32.059Z,11.90
2019-03-21T19:04:58.470Z,11.90
2019-03-21T19:07:24.903Z,11.80
2019-03-21T19:09:51.299Z,11.80
2019-03-21T19:12:17.751Z,11.80
2019-03-21T19:14:44.111Z,11.80
2019-03-21T19:17:10.667Z,11.80
2019-03-21T19:19:37.059Z,11.80
2019-03-21T19:22:03.520Z,11.80
2019-03-21T19:24:31.020Z,11.80
2019-03-21T19:26:57.444Z,11.80
2019-03-21T19:29:23.893Z,11.70
2019-03-21T19:31:50.341Z,11.70
2019-03-21T19:34:16.841Z,11.60
2019-03-21T19:36:43.300Z,11.60
2019-03-21T19:39:09.755Z,11.50
2019-03-21T19:41:36.575Z,11.50
2019-03-21T19:44:03.010Z,11.50
2019-03-21T19:46:29.555Z,11.50
2019-03-21T19:48:56.086Z,11.50
2019-03-21T19:51:22.613Z,11.50
2019-03-21T19:53:49.067Z,11.50
2019-03-21T19:56:15.516Z,11.50
2019-03-21T19:58:41.962Z,11.60
2019-03-21T20:01:08.412Z,11.60
2019-03-21T20:03:34.913Z,11.60
2019-03-21T20:06:01.355Z,11.60
2019-03-21T20:08:27.910Z,11.60
2019-03-21T20:10:54.594Z,11.60
2019-03-21T20:13:21.224Z,11.50
2019-03-21T20:15:47.784Z,11.50
2019-03-21T20:18:15.352Z,11.50
2019-03-21T20:20:41.859Z,11.50
2019-03-21T20:23:08.404Z,11.50
2019-03-21T20:25:42.922Z,11.60
2019-03-21T20:28:04.255Z,11.50
2019-03-21T20:30:30.779Z,11.60
2019-03-21T20:32:57.313Z,11.60
2019-03-21T20:35:23.897Z,11.60
2019-03-21T20:37:50.328Z,11.50
2019-03-21T20:40:17.961Z,11.60
2019-03-21T20:42:44.393Z,11.50
2019-03-21T20:45:15.781Z,11.50
2019-03-21T20:47:42.292Z,11.50
2019-03-21T20:50:09.318Z,11.60
2019-03-21T20:52:36.818Z,11.50
2019-03-21T20:55:05.576Z,11.50
2019-03-21T20:57:31.960Z,11.50
2019-03-21T20:59:58.456Z,11.50
2019-03-21T21:02:24.891Z,11.50
2019-03-21T21:04:51.416Z,11.50
2019-03-21T21:07:17.767Z,11.50
2019-03-21T21:09:44.184Z,11.40
2019-03-21T21:12:10.553Z,11.40
2019-03-21T21:14:36.971Z,11.40
2019-03-21T21:17:03.338Z,11.40
2019-03-21T21:19:29.771Z,11.40
2019-03-21T21:21:56.241Z,11.40
2019-03-21T21:24:22.683Z,11.40
2019-03-21T21:26:49.083Z,11.40
2019-03-21T21:29:15.506Z,11.40
2019-03-21T21:31:41.964Z,11.40
2019-03-21T21:34:08.672Z,11.40
2019-03-21T21:36:35.852Z,11.40
2019-03-21T21:39:05.533Z,11.40
2019-03-21T21:41:31.991Z,11.40
2019-03-21T21:43:58.452Z,11.30
2019-03-21T21:46:24.941Z,11.30
2019-03-21T21:48:51.497Z,11.30
2019-03-21T21:51:17.943Z,11.30
2019-03-21T21:53:44.376Z,11.30
2019-03-21T21:56:17.516Z,11.30
2019-03-21T21:58:39.460Z,11.30
2019-03-21T22:01:05.951Z,11.30
2019-03-21T22:03:32.392Z,11.30
2019-03-21T22:05:58.822Z,11.30
2019-03-21T22:08:25.327Z,11.40
2019-03-21T22:10:51.802Z,11.40
2019-03-21T22:13:18.241Z,11.40
2019-03-21T22:15:44.752Z,11.40
2019-03-21T22:18:11.212Z,11.50
2019-03-21T22:20:37.542Z,11.50
2019-03-21T22:23:03.916Z,11.40
2019-03-21T22:25:30.273Z,11.40
2019-03-21T22:27:56.684Z,11.50
2019-03-21T22:30:23.113Z,11.50
2019-03-21T22:32:49.425Z,11.50
2019-03-21T22:35:15.811Z,11.40
2019-03-21T22:37:42.138Z,11.50
2019-03-21T22:40:11.022Z,11.50
2019-03-21T22:42:37.349Z,11.50
2019-03-21T22:45:10.098Z,11.40
2019-03-21T22:47:36.487Z,11.50
2019-03-21T22:50:11.785Z,11.40
2019-03-21T22:52:38.197Z,11.40
2019-03-21T22:55:05.372Z,11.40
2019-03-21T22:57:31.776Z,11.40
2019-03-21T22:59:58.157Z,11.40
2019-03-21T23:02:24.527Z,11.40
2019-03-21T23:04:50.848Z,11.40
2019-03-21T23:07:17.240Z,11.40
2019-03-21T23:09:43.597Z,11.30
2019-03-21T23:12:10.026Z,11.30
2019-03-21T23:14:36.412Z,11.30
2019-03-21T23:17:02.824Z,11.30
2019-03-21T23:19:29.288Z,11.20
2019-03-21T23:21:55.677Z,11.30
2019-03-21T23:24:22.085Z,11.30
2019-03-21T23:26:53.176Z,11.30
2019-03-21T23:29:16.724Z,11.30
2019-03-21T23:31:43.162Z,11.20
2019-03-21T23:34:09.695Z,11.20
2019-03-21T23:36:37.031Z,11.20
2019-03-21T23:39:04.498Z,11.20
2019-03-21T23:41:32.247Z,11.20
2019-03-21T23:43:58.641Z,11.10
2019-03-21T23:46:24.978Z,11.20
2019-03-21T23:48:51.343Z,11.10
2019-03-21T23:51:17.684Z,11.20
2019-03-21T23:53:44.033Z,11.20
2019-03-21T23:56:10.398Z,11.20
2019-03-21T23:58:36.845Z,11.10
